createdAt,value
2022-11-10T00:01:47.563Z,8.60
2022-11-10T00:04:33.065Z,8.50
2022-11-10T00:07:18.728Z,8.50
2022-11-10T00:10:05.869Z,8.60
2022-11-10T00:12:51.239Z,8.60
2022-11-10T00:15:38.746Z,8.50
2022-11-10T00:18:24.079Z,8.60
2022-11-10T00:21:11.778Z,8.50
2022-11-10T00:23:57.006Z,8.50
2022-11-10T00:26:42.529Z,8.50
2022-11-10T00:29:28.198Z,8.50
2022-11-10T00:32:13.781Z,8.60
2022-11-10T00:34:59.417Z,8.60
2022-11-10T00:37:45.101Z,8.60
2022-11-10T00:40:30.616Z,8.60
2022-11-10T00:43:16.235Z,8.50
2022-11-10T00:46:01.719Z,8.50
2022-11-10T00:48:47.384Z,8.40
2022-11-10T00:51:33.349Z,8.50
2022-11-10T00:54:19.322Z,8.40
2022-11-10T00:57:04.993Z,8.40
2022-11-10T00:59:50.511Z,8.40
2022-11-10T01:02:36.070Z,8.40
2022-11-10T01:05:22.121Z,8.40
2022-11-10T01:08:07.699Z,8.40
2022-11-10T01:10:53.244Z,8.40
2022-11-10T01:13:39.037Z,8.50
2022-11-10T01:16:27.387Z,8.40
2022-11-10T01:19:12.957Z,8.40
2022-11-10T01:21:58.637Z,8.40
2022-11-10T01:24:44.108Z,8.50
2022-11-10T01:27:29.821Z,8.50
2022-11-10T01:30:16.838Z,8.50
2022-11-10T01:33:02.503Z,8.60
2022-11-10T01:35:48.142Z,8.50
2022-11-10T01:38:36.555Z,8.50
2022-11-10T01:41:22.238Z,8.50
2022-11-10T01:44:14.940Z,8.50
2022-11-10T01:47:00.708Z,8.50
2022-11-10T01:49:46.152Z,8.50
2022-11-10T01:52:31.814Z,8.50
2022-11-10T01:55:17.823Z,8.50
2022-11-10T01:58:04.461Z,8.50
2022-11-10T02:00:50.754Z,8.50
2022-11-10T02:03:54.223Z,8.50
2022-11-10T02:06:42.492Z,8.50
2022-11-10T02:09:28.127Z,8.50
2022-11-10T02:12:14.849Z,8.50
2022-11-10T02:15:00.291Z,8.50
2022-11-10T02:17:47.810Z,8.50
2022-11-10T02:20:33.620Z,8.50
2022-11-10T02:23:31.307Z,8.50
2022-11-10T02:26:26.779Z,8.60
2022-11-10T02:29:12.866Z,8.50
2022-11-10T02:31:58.448Z,8.60
2022-11-10T02:34:44.174Z,8.50
2022-11-10T02:37:29.459Z,8.60
2022-11-10T02:40:15.267Z,8.60
2022-11-10T02:43:01.465Z,8.60
2022-11-10T02:45:47.614Z,8.60
2022-11-10T02:48:32.981Z,8.60
2022-11-10T02:51:18.524Z,8.60
2022-11-10T02:54:04.265Z,8.60
2022-11-10T02:56:49.701Z,8.60
2022-11-10T02:59:35.163Z,8.70
2022-11-10T03:02:20.693Z,8.70
2022-11-10T03:05:06.436Z,8.70
2022-11-10T03:08:00.715Z,8.60
2022-11-10T03:10:46.017Z,8.60
2022-11-10T03:13:45.429Z,8.60
2022-11-10T03:16:37.744Z,8.70
2022-11-10T03:19:23.301Z,8.60
2022-11-10T03:22:08.825Z,8.70
2022-11-10T03:24:54.455Z,8.60
2022-11-10T03:27:40.042Z,8.70
2022-11-10T03:30:25.762Z,8.70
2022-11-10T03:33:11.419Z,8.70
2022-11-10T03:35:56.905Z,8.70
2022-11-10T03:38:42.462Z,8.70
2022-11-10T03:41:27.916Z,8.70
2022-11-10T03:44:13.198Z,8.60
2022-11-10T03:46:58.766Z,8.70
2022-11-10T03:49:44.448Z,8.60
2022-11-10T03:52:29.976Z,8.60
2022-11-10T03:55:17.922Z,8.60
2022-11-10T03:58:04.095Z,8.60
2022-11-10T04:00:49.421Z,8.70
2022-11-10T04:03:35.001Z,8.60
2022-11-10T04:06:20.713Z,8.60
2022-11-10T04:09:07.157Z,8.60
2022-11-10T04:11:52.749Z,8.70
2022-11-10T04:14:38.372Z,8.60
2022-11-10T04:17:23.822Z,8.60
2022-11-10T04:20:09.755Z,8.70
2022-11-10T04:22:55.389Z,8.70
2022-11-10T04:25:41.093Z,8.60
2022-11-10T04:28:26.645Z,8.70
2022-11-10T04:31:13.235Z,8.70
2022-11-10T04:33:59.082Z,8.70
2022-11-10T04:36:44.717Z,8.70
2022-11-10T04:39:30.072Z,8.60
2022-11-10T04:42:15.792Z,8.70
2022-11-10T04:45:01.045Z,8.60
2022-11-10T04:47:46.649Z,8.60
2022-11-10T04:50:32.027Z,8.60
2022-11-10T04:53:18.573Z,8.60
2022-11-10T04:56:04.629Z,8.60
2022-11-10T04:58:50.694Z,8.70
2022-11-10T05:01:36.207Z,8.60
2022-11-10T05:04:21.827Z,8.60
2022-11-10T05:07:07.142Z,8.60
2022-11-10T05:09:52.813Z,8.70
2022-11-10T05:12:38.460Z,8.80
2022-11-10T05:15:25.458Z,8.80
2022-11-10T05:18:11.047Z,8.90
2022-11-10T05:20:56.241Z,8.90
2022-11-10T05:23:41.886Z,8.90
2022-11-10T05:26:27.396Z,8.80
2022-11-10T05:29:12.921Z,8.80
2022-11-10T05:31:58.409Z,8.80
2022-11-10T05:34:43.968Z,8.80
2022-11-10T05:37:29.511Z,8.70
2022-11-10T05:40:14.995Z,8.70
2022-11-10T05:43:00.727Z,8.70
2022-11-10T05:45:46.480Z,8.70
2022-11-10T05:48:31.847Z,8.80
2022-11-10T05:51:17.778Z,8.80
2022-11-10T05:54:02.991Z,8.80
2022-11-10T05:56:48.510Z,8.70
2022-11-10T05:59:33.948Z,8.70
2022-11-10T06:02:19.621Z,8.60
2022-11-10T06:05:05.726Z,8.60
2022-11-10T06:07:51.210Z,8.60
2022-11-10T06:10:37.777Z,8.70
2022-11-10T06:13:23.359Z,8.70
2022-11-10T06:16:09.229Z,8.70
2022-11-10T06:18:57.355Z,8.80
2022-11-10T06:21:42.671Z,8.80
2022-11-10T06:24:28.272Z,8.90
2022-11-10T06:27:14.394Z,8.90
2022-11-10T06:30:00.262Z,9.00
2022-11-10T06:32:46.013Z,9.00
2022-11-10T06:35:31.914Z,9.00
2022-11-10T06:38:17.182Z,9.00
2022-11-10T06:41:02.915Z,9.00
2022-11-10T06:43:48.403Z,9.00
2022-11-10T06:46:37.069Z,9.10
2022-11-10T06:49:26.768Z,9.10
2022-11-10T06:52:12.246Z,9.20
2022-11-10T06:54:58.662Z,9.30
2022-11-10T06:57:43.861Z,9.40
2022-11-10T07:00:29.650Z,9.40
2022-11-10T07:03:15.974Z,9.40
2022-11-10T07:06:01.584Z,9.40
2022-11-10T07:08:48.345Z,9.50
2022-11-10T07:11:33.513Z,9.40
2022-11-10T07:14:19.287Z,9.40
2022-11-10T07:17:04.567Z,9.50
2022-11-10T07:19:50.204Z,9.40
2022-11-10T07:22:35.438Z,9.40
2022-11-10T07:25:21.017Z,9.50
2022-11-10T07:28:08.620Z,9.50
2022-11-10T07:30:54.030Z,9.50
2022-11-10T07:33:39.636Z,9.50
2022-11-10T07:36:25.061Z,9.60
2022-11-10T07:39:11.549Z,9.80
2022-11-10T07:41:56.871Z,9.90
2022-11-10T07:44:42.357Z,10.00
2022-11-10T07:47:27.825Z,10.00
2022-11-10T07:50:13.314Z,9.90
2022-11-10T07:53:11.131Z,10.10
2022-11-10T07:55:58.186Z,10.10
2022-11-10T07:58:43.433Z,10.20
2022-11-10T08:01:28.992Z,10.30
2022-11-10T08:04:14.478Z,10.40
2022-11-10T08:07:00.228Z,10.30
2022-11-10T08:09:45.418Z,10.50
2022-11-10T08:12:33.689Z,10.70
2022-11-10T08:15:19.144Z,10.70
2022-11-10T08:18:30.812Z,10.70
2022-11-10T08:21:19.100Z,10.80
2022-11-10T08:24:04.788Z,10.70
2022-11-10T08:26:50.344Z,10.80
2022-11-10T08:29:36.245Z,10.80
2022-11-10T08:32:21.827Z,10.90
2022-11-10T08:35:07.567Z,11.00
2022-11-10T08:37:53.135Z,11.20
2022-11-10T08:40:39.184Z,11.30
2022-11-10T08:43:25.246Z,11.40
2022-11-10T08:46:11.076Z,11.30
2022-11-10T08:48:56.605Z,11.30
2022-11-10T08:51:42.229Z,11.40
2022-11-10T08:54:27.717Z,11.60
2022-11-10T08:57:13.478Z,11.70
2022-11-10T08:59:58.661Z,11.70
2022-11-10T09:02:44.243Z,11.80
2022-11-10T09:05:29.830Z,12.00
2022-11-10T09:08:15.761Z,12.50
2022-11-10T09:11:04.867Z,12.40
2022-11-10T09:13:50.209Z,12.10
2022-11-10T09:16:35.602Z,11.90
2022-11-10T09:19:21.223Z,11.90
2022-11-10T09:22:06.608Z,11.90
2022-11-10T09:24:52.264Z,12.10
2022-11-10T09:27:38.865Z,12.20
2022-11-10T09:30:24.661Z,12.10
2022-11-10T09:33:09.917Z,12.00
2022-11-10T09:35:59.521Z,11.90
2022-11-10T09:38:45.076Z,11.90
2022-11-10T09:41:30.676Z,11.90
2022-11-10T09:44:28.097Z,12.00
2022-11-10T09:47:42.471Z,11.80
2022-11-10T09:50:49.090Z,11.90
2022-11-10T09:53:44.717Z,11.90
2022-11-10T09:56:36.097Z,12.00
2022-11-10T09:59:27.097Z,12.10
2022-11-10T10:02:24.073Z,12.10
2022-11-10T10:05:27.626Z,12.00
2022-11-10T10:08:19.209Z,12.00
2022-11-10T10:11:41.587Z,12.00
2022-11-10T10:14:32.539Z,12.10
2022-11-10T10:17:42.322Z,12.00
2022-11-10T10:20:35.718Z,12.00
2022-11-10T10:24:07.872Z,12.00
2022-11-10T10:26:55.061Z,12.00
2022-11-10T10:29:44.889Z,12.40
2022-11-10T10:32:30.235Z,12.70
2022-11-10T10:35:17.827Z,12.70
2022-11-10T10:38:05.538Z,12.90
2022-11-10T10:40:53.101Z,13.00
2022-11-10T10:43:41.798Z,13.10
2022-11-10T10:46:31.454Z,12.80
2022-11-10T10:49:30.962Z,12.80
2022-11-10T10:52:18.180Z,12.90
2022-11-10T10:55:08.038Z,12.80
2022-11-10T10:58:00.462Z,12.60
2022-11-10T11:00:48.417Z,12.40
2022-11-10T11:03:48.446Z,12.50
2022-11-10T11:06:35.276Z,12.40
2022-11-10T11:09:40.531Z,12.40
2022-11-10T11:12:28.731Z,12.40
2022-11-10T11:15:26.335Z,12.40
2022-11-10T11:18:15.514Z,12.20
2022-11-10T11:21:05.104Z,12.20
2022-11-10T11:23:59.589Z,12.30
2022-11-10T11:26:56.946Z,12.10
2022-11-10T11:29:42.189Z,11.90
2022-11-10T11:33:09.663Z,11.90
2022-11-10T11:36:01.575Z,12.00
2022-11-10T11:39:05.916Z,11.90
2022-11-10T11:42:13.529Z,11.80
2022-11-10T11:45:20.405Z,11.70
2022-11-10T11:48:18.150Z,11.80
2022-11-10T11:51:21.870Z,11.80
2022-11-10T11:54:26.139Z,11.70
2022-11-10T11:57:40.262Z,11.70
2022-11-10T12:00:26.077Z,11.80
2022-11-10T12:03:30.529Z,11.70
2022-11-10T12:06:27.734Z,11.70
2022-11-10T12:09:38.182Z,11.80
2022-11-10T12:12:35.815Z,11.70
2022-11-10T12:15:40.328Z,11.80
2022-11-10T12:18:25.658Z,11.80
2022-11-10T12:21:30.589Z,11.80
2022-11-10T12:24:43.231Z,11.90
2022-11-10T12:27:32.631Z,11.90
2022-11-10T12:30:18.746Z,12.00
2022-11-10T12:33:17.981Z,12.00
2022-11-10T12:36:08.400Z,11.90
2022-11-10T12:39:01.286Z,12.00
2022-11-10T12:41:59.778Z,11.80
2022-11-10T12:45:06.428Z,11.70
2022-11-10T12:47:53.386Z,11.70
2022-11-10T12:50:55.372Z,11.80
2022-11-10T12:53:42.198Z,11.80
2022-11-10T12:56:46.211Z,11.70
2022-11-10T12:59:37.662Z,11.70
2022-11-10T13:02:34.894Z,11.70
2022-11-10T13:05:25.980Z,11.60
2022-11-10T13:08:25.945Z,11.60
2022-11-10T13:11:11.717Z,11.60
2022-11-10T13:14:00.322Z,11.60
2022-11-10T13:16:51.663Z,11.60
2022-11-10T13:19:37.097Z,11.50
2022-11-10T13:22:34.184Z,11.60
2022-11-10T13:25:38.205Z,11.50
2022-11-10T13:28:58.436Z,11.50
2022-11-10T13:31:54.505Z,11.60
2022-11-10T13:34:42.036Z,11.50
2022-11-10T13:37:33.841Z,11.60
2022-11-10T13:40:25.402Z,11.50
2022-11-10T13:43:23.931Z,11.50
2022-11-10T13:46:09.767Z,11.50
2022-11-10T13:48:55.111Z,11.40
2022-11-10T13:52:00.761Z,11.50
2022-11-10T13:55:19.812Z,11.50
2022-11-10T13:58:13.984Z,11.50
2022-11-10T14:01:17.400Z,11.30
2022-11-10T14:04:04.266Z,11.30
2022-11-10T14:06:53.596Z,11.30
2022-11-10T14:09:42.927Z,11.30
2022-11-10T14:12:37.492Z,11.40
2022-11-10T14:15:30.256Z,11.30
2022-11-10T14:18:23.392Z,11.30
2022-11-10T14:21:20.074Z,11.20
2022-11-10T14:24:27.312Z,11.20
2022-11-10T14:27:15.734Z,11.10
2022-11-10T14:30:25.176Z,11.20
2022-11-10T14:33:13.057Z,11.10
2022-11-10T14:36:06.914Z,11.10
2022-11-10T14:38:53.235Z,11.10
2022-11-10T14:41:49.712Z,11.00
2022-11-10T14:44:35.487Z,11.00
2022-11-10T14:47:30.575Z,11.00
2022-11-10T14:50:20.926Z,11.00
2022-11-10T14:53:28.001Z,10.90
2022-11-10T14:56:36.141Z,10.80
2022-11-10T14:59:23.381Z,10.90
2022-11-10T15:02:15.095Z,10.90
2022-11-10T15:05:02.262Z,10.80
2022-11-10T15:07:52.022Z,10.80
2022-11-10T15:10:40.573Z,10.80
2022-11-10T15:13:29.398Z,10.70
2022-11-10T15:16:22.681Z,10.80
2022-11-10T15:19:46.346Z,10.70
2022-11-10T15:22:36.261Z,10.80
2022-11-10T15:25:24.391Z,10.80
2022-11-10T15:28:13.155Z,10.80
2022-11-10T15:31:13.482Z,10.60
2022-11-10T15:34:01.614Z,10.60
2022-11-10T15:36:47.315Z,10.60
2022-11-10T15:39:32.964Z,10.60
2022-11-10T15:42:21.737Z,10.60
2022-11-10T15:45:07.610Z,10.50
2022-11-10T15:47:53.537Z,10.60
2022-11-10T15:50:40.483Z,10.50
2022-11-10T15:53:38.978Z,10.40
2022-11-10T15:56:25.047Z,10.40
2022-11-10T15:59:11.217Z,10.40
2022-11-10T16:01:57.120Z,10.40
2022-11-10T16:04:43.283Z,10.40
2022-11-10T16:07:28.921Z,10.40
2022-11-10T16:10:15.347Z,10.50
2022-11-10T16:13:00.581Z,10.50
2022-11-10T16:15:46.833Z,10.50
2022-11-10T16:18:32.400Z,10.40
2022-11-10T16:21:23.760Z,10.50
2022-11-10T16:24:10.130Z,10.60
2022-11-10T16:26:56.841Z,10.40
2022-11-10T16:29:43.089Z,10.40
2022-11-10T16:32:29.001Z,10.40
2022-11-10T16:35:15.017Z,10.40
2022-11-10T16:38:00.829Z,10.40
2022-11-10T16:41:12.465Z,10.40
2022-11-10T16:43:58.101Z,10.30
2022-11-10T16:46:45.328Z,10.10
2022-11-10T16:49:42.618Z,10.20
2022-11-10T16:52:28.726Z,10.10
2022-11-10T16:55:14.663Z,10.00
2022-11-10T16:58:00.066Z,10.00
2022-11-10T17:00:48.169Z,10.00
2022-11-10T17:03:37.021Z,9.90
2022-11-10T17:06:25.341Z,9.80
2022-11-10T17:09:17.902Z,9.90
2022-11-10T17:12:04.497Z,9.60
2022-11-10T17:14:49.825Z,9.60
2022-11-10T17:17:36.248Z,9.50
2022-11-10T17:20:28.541Z,9.60
2022-11-10T17:23:22.222Z,9.40
2022-11-10T17:26:14.232Z,9.40
2022-11-10T17:29:00.871Z,9.40
2022-11-10T17:31:46.829Z,9.40
2022-11-10T17:34:32.103Z,9.40
2022-11-10T17:37:18.894Z,9.30
2022-11-10T17:40:27.047Z,9.20
2022-11-10T17:43:14.272Z,9.30
2022-11-10T17:46:01.842Z,9.20
2022-11-10T17:48:47.856Z,9.20
2022-11-10T17:51:34.491Z,9.20
2022-11-10T17:54:20.728Z,9.20
2022-11-10T17:57:08.549Z,9.20
2022-11-10T17:59:55.312Z,9.30
2022-11-10T18:02:45.335Z,9.20
2022-11-10T18:05:31.559Z,9.00
2022-11-10T18:08:18.313Z,9.10
2022-11-10T18:11:03.763Z,9.20
2022-11-10T18:13:49.309Z,9.10
2022-11-10T18:16:34.829Z,9.10
2022-11-10T18:19:20.661Z,9.20
2022-11-10T18:22:06.521Z,9.40
2022-11-10T18:24:52.251Z,9.30
2022-11-10T18:27:38.410Z,9.30
2022-11-10T18:30:23.944Z,9.40
2022-11-10T18:33:11.367Z,9.50
2022-11-10T18:35:58.996Z,9.60
2022-11-10T18:38:44.541Z,9.40
2022-11-10T18:41:30.362Z,9.30
2022-11-10T18:44:17.103Z,9.50
2022-11-10T18:47:09.129Z,9.40
2022-11-10T18:49:54.826Z,9.50
2022-11-10T18:52:40.599Z,9.30
2022-11-10T18:55:26.343Z,9.40
2022-11-10T18:58:12.322Z,9.40
2022-11-10T19:01:08.960Z,9.20
2022-11-10T19:03:55.217Z,9.20
2022-11-10T19:06:41.105Z,9.10
2022-11-10T19:09:27.123Z,9.20
2022-11-10T19:12:13.337Z,9.10
2022-11-10T19:14:59.266Z,9.30
2022-11-10T19:17:45.125Z,9.20
2022-11-10T19:20:30.828Z,9.10
2022-11-10T19:23:16.814Z,9.10
2022-11-10T19:26:24.698Z,9.10
2022-11-10T19:29:10.734Z,9.10
2022-11-10T19:31:56.948Z,9.20
2022-11-10T19:34:43.131Z,9.20
2022-11-10T19:37:33.510Z,9.10
2022-11-10T19:40:22.814Z,9.10
2022-11-10T19:43:08.602Z,9.10
2022-11-10T19:45:54.612Z,8.80
2022-11-10T19:48:40.543Z,8.90
2022-11-10T19:51:26.760Z,9.10
2022-11-10T19:54:13.025Z,9.10
2022-11-10T19:56:58.937Z,9.00
2022-11-10T19:59:48.610Z,9.10
2022-11-10T20:02:35.824Z,9.20
2022-11-10T20:05:21.828Z,9.20
2022-11-10T20:08:10.006Z,9.20
2022-11-10T20:11:00.633Z,9.00
2022-11-10T20:13:48.851Z,8.90
2022-11-10T20:16:41.791Z,8.90
2022-11-10T20:19:28.113Z,9.00
2022-11-10T20:22:13.731Z,8.80
2022-11-10T20:25:01.381Z,8.80
2022-11-10T20:27:50.240Z,8.80
2022-11-10T20:30:43.220Z,8.70
2022-11-10T20:33:30.226Z,8.60
2022-11-10T20:36:20.581Z,8.80
2022-11-10T20:39:07.016Z,8.90
2022-11-10T20:41:52.985Z,8.90
2022-11-10T20:44:38.954Z,9.00
2022-11-10T20:47:25.046Z,9.00
2022-11-10T20:50:14.907Z,8.90
2022-11-10T20:53:03.233Z,8.70
2022-11-10T20:55:56.194Z,8.80
2022-11-10T20:58:43.517Z,8.90
2022-11-10T21:01:29.272Z,9.00
2022-11-10T21:04:14.945Z,8.90
2022-11-10T21:07:00.585Z,9.00
2022-11-10T21:09:46.060Z,9.00
2022-11-10T21:12:31.512Z,8.80
2022-11-10T21:15:18.885Z,8.60
2022-11-10T21:18:04.417Z,8.60
2022-11-10T21:20:50.120Z,8.80
2022-11-10T21:23:35.523Z,8.70
2022-11-10T21:26:21.108Z,8.70
2022-11-10T21:29:06.798Z,8.70
2022-11-10T21:31:52.209Z,8.70
2022-11-10T21:34:37.688Z,8.70
2022-11-10T21:37:23.266Z,8.60
2022-11-10T21:40:09.508Z,8.40
2022-11-10T21:42:55.368Z,8.70
2022-11-10T21:45:41.063Z,8.60
2022-11-10T21:48:26.218Z,8.60
2022-11-10T21:51:12.102Z,8.40
2022-11-10T21:53:58.231Z,8.50
2022-11-10T21:56:43.730Z,8.60
2022-11-10T21:59:29.364Z,8.70
2022-11-10T22:02:15.047Z,8.50
2022-11-10T22:05:00.690Z,8.50
2022-11-10T22:07:46.242Z,8.60
2022-11-10T22:10:31.988Z,8.60
2022-11-10T22:13:21.117Z,8.60
2022-11-10T22:16:33.228Z,8.40
2022-11-10T22:19:18.650Z,8.50
2022-11-10T22:22:04.562Z,8.50
2022-11-10T22:24:49.927Z,8.50
2022-11-10T22:27:35.622Z,8.50
2022-11-10T22:30:21.096Z,8.40
2022-11-10T22:33:06.777Z,8.30
2022-11-10T22:35:56.583Z,8.40
2022-11-10T22:38:42.517Z,8.60
2022-11-10T22:41:28.349Z,8.20
2022-11-10T22:44:13.867Z,8.40
2022-11-10T22:46:59.431Z,8.30
2022-11-10T22:49:44.851Z,8.30
2022-11-10T22:52:30.626Z,8.20
2022-11-10T22:55:15.833Z,8.10
2022-11-10T22:58:01.533Z,8.10
2022-11-10T23:00:47.165Z,8.10
2022-11-10T23:03:33.751Z,8.10
2022-11-10T23:06:19.352Z,7.90
2022-11-10T23:09:05.687Z,8.00
2022-11-10T23:11:51.671Z,8.00
2022-11-10T23:14:37.299Z,8.20
2022-11-10T23:17:26.583Z,8.20
2022-11-10T23:20:12.795Z,8.20
2022-11-10T23:22:58.310Z,8.10
2022-11-10T23:25:43.854Z,8.20
2022-11-10T23:28:30.770Z,8.10
2022-11-10T23:31:20.161Z,8.10
2022-11-10T23:34:05.727Z,8.20
2022-11-10T23:36:51.389Z,8.10
2022-11-10T23:39:36.880Z,8.00
2022-11-10T23:42:22.573Z,8.10
2022-11-10T23:45:08.891Z,8.10
2022-11-10T23:47:54.183Z,8.10
2022-11-10T23:50:40.450Z,8.20
2022-11-10T23:53:25.888Z,8.00
2022-11-10T23:56:13.428Z,7.90
2022-11-10T23:58:58.937Z,7.70
